Time;durP1;ratioP1;P1;durP2;ratioP2;P2;SDS_P1;SDS_P2;PMS_P1;PMS_P2;Temp;Humidity;BMP_temperature;BMP_pressure;BME280_temperature;BME280_humidity;BME280_pressure;Samples;Min_cycle;Max_cycle;Signal;HPM_P1;HPM_P2
2021/11/21 00:02:09;;;;;;;16.55;7.50;;;10.10;99.90;;;;;;5034506;28;20153;-85
2021/11/21 00:05:24;;;;;;;15.80;7.35;;;10.10;99.90;;;;;;5019892;28;20052;-81
2021/11/21 00:08:06;;;;;;;16.60;7.80;;;10.10;99.90;;;;;;5007283;28;20041;-80
2021/11/21 00:10:33;;;;;;;15.77;7.82;;;10.20;99.90;;;;;;4980530;28;20128;-75
2021/11/21 00:13:03;;;;;;;12.63;7.43;;;10.50;99.90;;;;;;5015076;28;20064;-77
2021/11/21 00:15:29;;;;;;;12.13;7.72;;;10.60;99.90;;;;;;5002116;28;20048;-73
2021/11/21 00:17:55;;;;;;;12.85;7.70;;;10.20;99.90;;;;;;5014674;28;20045;-72
2021/11/21 00:20:21;;;;;;;15.02;7.60;;;10.60;99.90;;;;;;5015546;28;20041;-79
2021/11/21 00:22:47;;;;;;;11.55;7.18;;;10.10;99.90;;;;;;5012478;28;20049;-84
2021/11/21 00:25:15;;;;;;;13.85;8.15;;;10.10;99.90;;;;;;4996162;28;20053;-89
2021/11/21 00:27:41;;;;;;;11.70;7.22;;;10.10;99.90;;;;;;4984834;28;20053;-89
2021/11/21 00:30:10;;;;;;;9.80;6.70;;;10.20;99.90;;;;;;5012576;28;20041;-89
2021/11/21 00:32:38;;;;;;;13.07;7.10;;;10.10;99.90;;;;;;4980160;28;20057;-88
2021/11/21 00:35:05;;;;;;;15.55;7.45;;;10.10;99.90;;;;;;4980086;28;20117;-88
2021/11/21 00:37:30;;;;;;;12.65;6.95;;;10.10;99.90;;;;;;4996160;28;20514;-88
2021/11/21 00:39:59;;;;;;;9.35;7.15;;;10.40;99.90;;;;;;4999906;28;20129;-88
2021/11/21 00:42:25;;;;;;;11.75;7.53;;;10.10;99.90;;;;;;5008902;28;20081;-88
2021/11/21 00:44:51;;;;;;;11.98;7.07;;;10.10;99.90;;;;;;4998350;28;20029;-88
2021/11/21 00:47:17;;;;;;;10.45;6.75;;;10.20;99.90;;;;;;5016269;28;20041;-88
2021/11/21 00:49:43;;;;;;;12.35;6.90;;;10.10;99.90;;;;;;5016410;28;20075;-88
2021/11/21 00:52:10;;;;;;;10.02;6.10;;;10.60;99.90;;;;;;5000666;28;20052;-87
2021/11/21 00:54:49;;;;;;;10.93;6.53;;;10.10;99.90;;;;;;5017192;28;20052;-88
2021/11/21 00:57:17;;;;;;;8.50;5.70;;;10.10;99.90;;;;;;4998886;28;20038;-88
2021/11/21 01:00:09;;;;;;;11.38;6.90;;;10.20;99.90;;;;;;5000055;28;20056;-88
2021/11/21 01:02:43;;;;;;;9.45;6.45;;;10.10;99.90;;;;;;4975645;28;20033;-88
2021/11/21 01:05:19;;;;;;;11.13;7.20;;;10.30;99.90;;;;;;5016723;28;20041;-88
2021/11/21 01:07:48;;;;;;;10.52;7.00;;;10.10;99.90;;;;;;4983889;28;20512;-87
2021/11/21 01:10:18;;;;;;;12.15;6.68;;;9.50;99.90;;;;;;5015827;28;20033;-87
2021/11/21 01:12:53;;;;;;;9.45;6.93;;;10.10;99.90;;;;;;4998703;28;20402;-86
2021/11/21 01:15:27;;;;;;;10.85;7.22;;;10.00;99.90;;;;;;4975859;28;20052;-86
2021/11/21 01:18:03;;;;;;;9.82;6.90;;;10.10;99.90;;;;;;5015617;28;20081;-85
2021/11/21 01:20:32;;;;;;;10.90;7.47;;;10.10;99.90;;;;;;5016057;28;20052;-85
2021/11/21 01:23:01;;;;;;;10.40;6.30;;;9.90;99.90;;;;;;4983251;28;20057;-86
2021/11/21 01:25:27;;;;;;;8.85;6.32;;;10.10;99.90;;;;;;4982815;28;20057;-85
2021/11/21 01:27:59;;;;;;;9.40;7.10;;;10.10;99.90;;;;;;4983486;28;20029;-86
2021/11/21 01:30:29;;;;;;;8.00;6.05;;;10.10;99.90;;;;;;4982304;28;20668;-86
2021/11/21 01:32:59;;;;;;;10.68;6.75;;;10.10;99.90;;;;;;5031702;28;20037;-86
2021/11/21 01:35:26;;;;;;;10.77;6.78;;;10.10;99.90;;;;;;4999204;28;20048;-86
2021/11/21 01:37:55;;;;;;;11.40;6.65;;;10.80;99.90;;;;;;5015787;28;20595;-86
2021/11/21 01:40:22;;;;;;;10.15;5.47;;;10.20;99.90;;;;;;4999191;28;20045;-86
2021/11/21 01:42:49;;;;;;;10.90;5.55;;;10.10;99.90;;;;;;4999211;28;20048;-86
2021/11/21 01:45:15;;;;;;;11.73;6.15;;;10.10;99.90;;;;;;5013591;28;20037;-85
2021/11/21 01:47:48;;;;;;;9.80;5.63;;;10.20;99.90;;;;;;5010801;28;20383;-85
2021/11/21 01:50:27;;;;;;;10.45;5.35;;;10.10;99.90;;;;;;5031895;28;20041;-85
2021/11/21 01:52:54;;;;;;;7.15;5.45;;;10.10;99.90;;;;;;4988601;28;20465;-85
2021/11/21 01:55:20;;;;;;;7.03;4.88;;;10.20;99.90;;;;;;5015513;28;20429;-86
2021/11/21 01:57:49;;;;;;;8.80;5.03;;;10.10;99.90;;;;;;4997622;28;20037;-85
2021/11/21 02:00:16;;;;;;;7.75;4.47;;;10.20;99.90;;;;;;5031388;28;20124;-84
2021/11/21 02:02:45;;;;;;;6.47;3.80;;;10.10;99.90;;;;;;5017645;28;20053;-86
2021/11/21 02:05:14;;;;;;;6.68;3.75;;;10.10;99.90;;;;;;5031601;28;20045;-86
2021/11/21 02:07:42;;;;;;;6.28;3.20;;;10.20;99.90;;;;;;5015107;28;20033;-82
2021/11/21 02:10:11;;;;;;;8.63;3.10;;;10.10;99.90;;;;;;5015221;28;20068;-81
2021/11/21 02:12:37;;;;;;;8.65;2.60;;;10.10;99.90;;;;;;4995244;28;20103;-81
2021/11/21 02:15:11;;;;;;;5.90;3.08;;;10.10;99.90;;;;;;4979560;28;20129;-82
2021/11/21 02:17:40;;;;;;;8.40;3.08;;;10.20;99.90;;;;;;5015001;28;20077;-82
2021/11/21 02:20:09;;;;;;;9.25;3.13;;;10.70;99.90;;;;;;5031985;28;20025;-82
2021/11/21 02:22:37;;;;;;;10.43;2.50;;;10.10;99.90;;;;;;4996802;28;20061;-82
2021/11/21 02:25:04;;;;;;;8.30;2.33;;;10.20;99.90;;;;;;5014188;28;20060;-82
2021/11/21 02:27:41;;;;;;;12.20;2.78;;;9.60;99.90;;;;;;5031187;28;20033;-82
2021/11/21 02:30:13;;;;;;;15.35;2.30;;;9.90;99.90;;;;;;4972825;28;20053;-82
2021/11/21 02:32:56;;;;;;;13.20;1.90;;;10.40;99.90;;;;;;5013744;28;20038;-82
2021/11/21 02:35:31;;;;;;;17.42;2.22;;;10.20;99.90;;;;;;5031270;28;20045;-82
2021/11/21 02:38:02;;;;;;;10.55;2.08;;;10.10;99.90;;;;;;4999207;28;20045;-82
2021/11/21 02:40:31;;;;;;;9.05;1.90;;;10.10;99.90;;;;;;5014201;28;20489;-82
2021/11/21 02:43:00;;;;;;;13.40;2.15;;;10.00;99.90;;;;;;5031003;28;20486;-82
2021/11/21 02:45:28;;;;;;;13.00;1.95;;;10.10;99.90;;;;;;5030655;28;20044;-82
2021/11/21 02:47:57;;;;;;;13.82;2.30;;;10.10;99.90;;;;;;5030036;28;20037;-82
2021/11/21 02:50:29;;;;;;;11.65;1.80;;;10.90;99.90;;;;;;5014089;28;20034;-82
2021/11/21 02:52:57;;;;;;;17.08;2.30;;;10.40;99.90;;;;;;5014737;28;20155;-82
2021/11/21 02:55:27;;;;;;;16.38;2.40;;;10.10;99.90;;;;;;5014709;28;20053;-82
2021/11/21 02:57:53;;;;;;;14.30;1.83;;;10.10;99.90;;;;;;5014996;28;20049;-80
2021/11/21 03:00:19;;;;;;;11.85;1.85;;;11.00;99.90;;;;;;4997740;28;20099;-85
2021/11/21 03:02:50;;;;;;;10.55;1.70;;;9.80;99.90;;;;;;5031290;28;20034;-85
2021/11/21 03:05:23;;;;;;;16.83;2.30;;;10.10;99.90;;;;;;4996723;28;20041;-86
2021/11/21 03:07:49;;;;;;;12.90;2.40;;;10.10;99.90;;;;;;4995360;28;20053;-86
2021/11/21 03:10:21;;;;;;;12.95;1.83;;;10.10;99.90;;;;;;5014652;28;20041;-86
2021/11/21 03:12:57;;;;;;;15.30;2.03;;;10.10;99.90;;;;;;4982177;28;20041;-86
2021/11/21 03:15:23;;;;;;;19.52;2.03;;;10.10;99.90;;;;;;5030545;28;20052;-87
2021/11/21 03:17:49;;;;;;;13.93;1.80;;;10.10;99.90;;;;;;5032121;28;20366;-87
2021/11/21 03:20:20;;;;;;;12.43;2.13;;;10.10;99.90;;;;;;5029676;28;20067;-87
2021/11/21 03:22:46;;;;;;;8.48;2.10;;;10.10;99.90;;;;;;4997591;28;20060;-87
2021/11/21 03:25:12;;;;;;;9.43;1.45;;;10.10;99.90;;;;;;4998541;28;20187;-87
2021/11/21 03:27:44;;;;;;;8.88;1.70;;;10.10;99.90;;;;;;5014370;28;20041;-86
2021/11/21 03:30:12;;;;;;;10.90;1.77;;;10.10;99.90;;;;;;4998008;28;20391;-86
2021/11/21 03:32:41;;;;;;;10.48;1.70;;;10.00;99.90;;;;;;5030638;28;20045;-85
2021/11/21 03:35:09;;;;;;;10.32;1.52;;;9.90;99.90;;;;;;5017913;28;20389;-86
2021/11/21 03:37:37;;;;;;;10.68;1.80;;;9.90;99.90;;;;;;5000783;28;20045;-85
2021/11/21 03:40:05;;;;;;;9.32;1.38;;;9.90;99.90;;;;;;5033575;28;20049;-85
2021/11/21 03:42:31;;;;;;;13.48;2.00;;;9.90;99.90;;;;;;5001281;28;20072;-86
2021/11/21 03:44:57;;;;;;;11.57;1.73;;;9.80;99.90;;;;;;5034431;28;20088;-85
2021/11/21 03:47:23;;;;;;;17.00;1.52;;;9.80;99.90;;;;;;5000810;28;20041;-86
2021/11/21 03:49:48;;;;;;;11.50;1.55;;;9.80;99.90;;;;;;5017941;28;20073;-86
2021/11/21 03:52:14;;;;;;;11.88;1.70;;;9.80;99.90;;;;;;5034030;28;20120;-85
2021/11/21 03:54:40;;;;;;;11.75;1.55;;;9.80;99.90;;;;;;5033858;28;20045;-86
2021/11/21 03:57:07;;;;;;;13.65;1.52;;;9.70;99.90;;;;;;5034182;28;20052;-85
2021/11/21 03:59:33;;;;;;;9.18;1.35;;;9.70;99.90;;;;;;5017271;28;20124;-85
2021/11/21 04:01:59;;;;;;;11.88;1.50;;;9.70;99.90;;;;;;5001064;28;20045;-86
2021/11/21 04:04:30;;;;;;;11.73;1.58;;;9.70;99.90;;;;;;5008750;28;20041;-86
2021/11/21 04:06:56;;;;;;;11.10;1.63;;;10.50;99.90;;;;;;5033887;28;20080;-86
2021/11/21 04:09:22;;;;;;;10.50;1.42;;;9.70;99.90;;;;;;4984611;28;20104;-86
2021/11/21 04:11:49;;;;;;;9.63;1.40;;;9.80;99.90;;;;;;5016791;28;20044;-85
2021/11/21 04:14:16;;;;;;;14.98;1.88;;;9.90;99.90;;;;;;5033344;28;20037;-85
2021/11/21 04:16:42;;;;;;;12.70;1.70;;;9.70;99.90;;;;;;5000920;28;20515;-88
2021/11/21 04:19:09;;;;;;;11.55;1.77;;;9.60;99.90;;;;;;4981801;28;20049;-87
2021/11/21 04:21:38;;;;;;;13.02;1.75;;;9.80;99.90;;;;;;4993416;28;20095;-87
2021/11/21 04:24:05;;;;;;;19.58;4.28;;;9.70;99.90;;;;;;5020006;28;20405;-87
2021/11/21 04:26:34;;;;;;;13.95;2.58;;;9.70;99.90;;;;;;5001016;28;20090;-87
2021/11/21 04:29:00;;;;;;;14.63;2.05;;;9.70;99.90;;;;;;5000946;28;20099;-88
2021/11/21 04:31:26;;;;;;;14.13;1.80;;;10.40;99.90;;;;;;5000666;28;20478;-87
2021/11/21 04:33:52;;;;;;;12.93;2.10;;;9.70;99.90;;;;;;4997524;28;20449;-87
2021/11/21 04:36:19;;;;;;;16.48;1.70;;;10.50;99.90;;;;;;4999553;28;20045;-89
2021/11/21 04:38:45;;;;;;;15.27;1.88;;;10.30;99.90;;;;;;4984283;28;20049;-89
2021/11/21 04:41:12;;;;;;;11.73;1.70;;;9.70;99.90;;;;;;5033187;28;20037;-88
2021/11/21 04:43:40;;;;;;;19.50;1.75;;;10.30;99.90;;;;;;4997371;28;20054;-90
2021/11/21 04:46:06;;;;;;;14.75;2.00;;;9.70;99.90;;;;;;5026220;28;20048;-89
2021/11/21 04:48:32;;;;;;;10.50;1.80;;;9.70;99.90;;;;;;5000737;28;20041;-90
2021/11/21 04:50:59;;;;;;;12.77;2.08;;;10.30;99.90;;;;;;5032932;28;20046;-91
2021/11/21 04:53:26;;;;;;;11.25;2.05;;;9.70;99.90;;;;;;4999002;28;20052;-87
2021/11/21 04:55:51;;;;;;;13.13;1.80;;;9.70;99.90;;;;;;5032703;28;20429;-87
2021/11/21 04:58:17;;;;;;;14.90;2.20;;;9.70;99.90;;;;;;5032074;28;20056;-86
2021/11/21 05:00:46;;;;;;;15.02;2.20;;;9.80;99.90;;;;;;4999970;28;20100;-75
2021/11/21 05:03:12;;;;;;;13.20;2.42;;;9.70;99.90;;;;;;5000058;28;20045;-83
2021/11/21 05:05:38;;;;;;;19.70;2.58;;;9.60;99.90;;;;;;4983391;28;20041;-85
2021/11/21 05:08:04;;;;;;;21.05;3.45;;;9.60;99.90;;;;;;5013359;28;20046;-85
2021/11/21 05:10:30;;;;;;;22.77;6.30;;;9.60;99.90;;;;;;4996245;28;20160;-84
2021/11/21 05:12:59;;;;;;;15.57;3.58;;;9.60;99.90;;;;;;5032697;28;20044;-84
2021/11/21 05:15:25;;;;;;;13.60;2.00;;;9.90;99.90;;;;;;4995564;28;20052;-80
2021/11/21 05:17:52;;;;;;;24.92;2.47;;;9.60;99.90;;;;;;5015549;28;20490;-80
2021/11/21 05:20:21;;;;;;;15.68;2.45;;;9.60;99.90;;;;;;4982872;28;20096;-80
2021/11/21 05:22:48;;;;;;;14.32;2.55;;;9.50;99.90;;;;;;5032654;28;20045;-80
2021/11/21 05:25:15;;;;;;;15.85;2.65;;;9.50;99.90;;;;;;5015679;28;20045;-80
2021/11/21 05:27:46;;;;;;;16.05;2.17;;;9.50;99.90;;;;;;5005619;28;20040;-80
2021/11/21 05:30:13;;;;;;;17.98;2.58;;;10.00;99.90;;;;;;5000207;28;20118;-80
2021/11/21 05:32:40;;;;;;;13.27;2.05;;;10.00;99.90;;;;;;4998520;28;20037;-79
2021/11/21 05:35:06;;;;;;;10.85;2.55;;;9.40;99.90;;;;;;4982944;28;20057;-79
2021/11/21 05:37:34;;;;;;;20.52;3.00;;;9.40;99.90;;;;;;4998789;28;20244;-80
2021/11/21 05:40:00;;;;;;;15.68;2.47;;;9.30;99.90;;;;;;5032539;28;20111;-81
2021/11/21 05:42:29;;;;;;;20.77;1.85;;;9.30;99.90;;;;;;5013368;28;20037;-80
2021/11/21 05:44:55;;;;;;;12.95;2.22;;;9.30;99.90;;;;;;5014681;28;20037;-80
2021/11/21 05:47:20;;;;;;;17.52;2.40;;;9.20;99.90;;;;;;4998611;28;20041;-81
2021/11/21 05:49:46;;;;;;;15.88;2.13;;;9.20;99.90;;;;;;4995767;28;20144;-81
2021/11/21 05:52:12;;;;;;;21.02;2.95;;;9.40;99.90;;;;;;5031147;28;20127;-81
2021/11/21 05:54:37;;;;;;;18.50;2.63;;;9.10;99.90;;;;;;4998978;28;20052;-79
2021/11/21 05:57:04;;;;;;;14.20;2.30;;;9.10;99.90;;;;;;5015110;28;20040;-79
2021/11/21 05:59:29;;;;;;;21.73;2.72;;;9.00;99.90;;;;;;5030653;28;20092;-80
2021/11/21 06:01:55;;;;;;;14.98;2.33;;;9.00;99.90;;;;;;4982258;28;20041;-80
2021/11/21 06:04:21;;;;;;;21.80;2.83;;;9.00;99.90;;;;;;5015374;28;20034;-80
2021/11/21 06:06:47;;;;;;;13.27;2.00;;;8.90;99.90;;;;;;5031395;28;20472;-80
2021/11/21 06:09:12;;;;;;;18.15;3.05;;;8.90;99.90;;;;;;5015281;28;20052;-79
2021/11/21 06:11:38;;;;;;;14.15;2.20;;;8.90;99.90;;;;;;5015471;28;20075;-80
2021/11/21 06:14:04;;;;;;;20.33;2.45;;;8.90;99.90;;;;;;5031035;28;20041;-80
2021/11/21 06:16:30;;;;;;;17.13;2.60;;;8.90;99.90;;;;;;5015164;28;20047;-78
2021/11/21 06:18:55;;;;;;;15.55;2.50;;;8.90;99.90;;;;;;5029539;28;20049;-78
2021/11/21 06:21:21;;;;;;;15.55;2.25;;;8.90;99.90;;;;;;5031395;28;20080;-78
2021/11/21 06:23:47;;;;;;;19.35;2.67;;;8.80;99.90;;;;;;4979379;28;20112;-78
2021/11/21 06:26:12;;;;;;;20.10;2.85;;;8.80;99.90;;;;;;5014633;28;20521;-78
2021/11/21 06:28:38;;;;;;;21.00;2.53;;;8.80;99.90;;;;;;5014581;28;20034;-78
2021/11/21 06:31:04;;;;;;;21.27;2.58;;;9.10;99.90;;;;;;5014861;28;20146;-78
2021/11/21 06:33:30;;;;;;;16.33;2.75;;;8.70;99.90;;;;;;4995641;28;20056;-80
2021/11/21 06:35:56;;;;;;;20.90;2.67;;;8.70;99.90;;;;;;5014556;28;20079;-80
2021/11/21 06:38:22;;;;;;;14.05;2.75;;;8.70;99.90;;;;;;4998678;28;20053;-80
2021/11/21 06:40:48;;;;;;;17.30;2.47;;;8.70;99.90;;;;;;4998266;28;20045;-80
2021/11/21 06:43:14;;;;;;;19.02;2.75;;;9.30;99.90;;;;;;5031291;28;20064;-79
2021/11/21 06:45:39;;;;;;;17.75;3.25;;;8.60;99.90;;;;;;4998325;28;20041;-79
2021/11/21 06:48:10;;;;;;;19.55;3.05;;;8.60;99.90;;;;;;5014756;28;20064;-79
2021/11/21 06:50:37;;;;;;;18.92;3.05;;;8.70;99.90;;;;;;5012850;28;20049;-79
2021/11/21 06:53:04;;;;;;;17.00;3.05;;;8.70;99.90;;;;;;4998179;28;20044;-80
2021/11/21 06:55:30;;;;;;;19.27;2.53;;;8.50;99.90;;;;;;4998034;28;20129;-80
2021/11/21 06:57:55;;;;;;;26.75;3.25;;;8.50;99.90;;;;;;5014465;28;20132;-80
2021/11/21 07:00:21;;;;;;;13.50;2.70;;;8.50;99.90;;;;;;4978617;28;20046;-78
2021/11/21 07:02:47;;;;;;;22.23;2.95;;;8.50;99.90;;;;;;5004401;28;20046;-78
2021/11/21 07:05:13;;;;;;;19.88;2.85;;;8.40;99.90;;;;;;4980235;28;20065;-78
2021/11/21 07:07:40;;;;;;;22.42;2.78;;;8.40;99.90;;;;;;5029532;28;20048;-78
2021/11/21 07:10:07;;;;;;;21.52;3.25;;;8.40;99.90;;;;;;5034290;28;20099;-78
2021/11/21 07:12:33;;;;;;;17.70;2.78;;;8.40;99.90;;;;;;5004428;28;20444;-78
2021/11/21 07:14:59;;;;;;;18.60;2.95;;;8.20;99.90;;;;;;5035000;28;20454;-83
2021/11/21 07:17:27;;;;;;;19.75;4.25;;;8.30;99.90;;;;;;5018038;28;20042;-82
2021/11/21 07:19:53;;;;;;;16.73;3.10;;;8.30;99.90;;;;;;5002072;28;20437;-78
2021/11/21 07:22:20;;;;;;;16.52;2.47;;;8.30;99.90;;;;;;5001250;28;20041;-79
2021/11/21 07:24:46;;;;;;;17.65;3.03;;;8.30;99.90;;;;;;4997378;28;20045;-80
2021/11/21 07:27:17;;;;;;;16.70;3.47;;;8.30;99.90;;;;;;5028893;28;20068;-84
2021/11/21 07:29:42;;;;;;;26.00;3.40;;;8.30;99.90;;;;;;5001949;28;20048;-80
2021/11/21 07:32:10;;;;;;;17.30;3.35;;;8.20;99.90;;;;;;5001848;28;20029;-84
2021/11/21 07:34:36;;;;;;;18.98;3.15;;;8.10;99.90;;;;;;5033738;28;20042;-80
2021/11/21 07:37:01;;;;;;;15.00;2.85;;;8.10;99.90;;;;;;5001506;28;20382;-80
2021/11/21 07:39:27;;;;;;;16.27;3.25;;;8.10;99.90;;;;;;4985263;28;20453;-80
2021/11/21 07:41:53;;;;;;;18.08;3.15;;;8.10;99.90;;;;;;5000357;28;20041;-78
2021/11/21 07:44:22;;;;;;;16.63;3.47;;;8.10;99.90;;;;;;5034480;28;20049;-84
2021/11/21 07:46:48;;;;;;;21.92;3.30;;;8.00;99.90;;;;;;5017906;28;20406;-83
2021/11/21 07:49:13;;;;;;;18.65;3.25;;;8.00;99.90;;;;;;5017884;28;20383;-82
2021/11/21 07:51:39;;;;;;;17.42;2.72;;;8.00;99.90;;;;;;4997170;28;20401;-82
2021/11/21 07:54:05;;;;;;;17.17;3.30;;;8.00;99.90;;;;;;4981666;28;20069;-82
2021/11/21 07:56:31;;;;;;;12.57;2.70;;;7.90;99.90;;;;;;4983562;28;20037;-82
2021/11/21 07:58:57;;;;;;;14.25;2.88;;;7.90;99.90;;;;;;4981405;28;20042;-82
2021/11/21 08:01:22;;;;;;;15.10;2.85;;;7.90;99.90;;;;;;4997171;28;20051;-83
2021/11/21 08:03:51;;;;;;;12.07;2.33;;;7.90;99.90;;;;;;4983825;28;20114;-79
2021/11/21 08:06:17;;;;;;;19.63;3.13;;;7.90;99.90;;;;;;4985540;28;20536;-80
2021/11/21 08:08:43;;;;;;;13.80;2.47;;;8.50;99.90;;;;;;5016796;28;20049;-78
2021/11/21 08:11:08;;;;;;;23.15;2.55;;;7.90;99.90;;;;;;5033515;28;20037;-95
2021/11/21 08:13:38;;;;;;;13.27;2.35;;;7.90;99.90;;;;;;5015260;28;20045;-73
2021/11/21 08:16:04;;;;;;;23.67;3.13;;;7.80;99.90;;;;;;5033394;28;20084;-73
2021/11/21 08:18:30;;;;;;;22.38;3.08;;;7.80;99.90;;;;;;5000134;28;20076;-73
2021/11/21 08:20:57;;;;;;;15.00;3.13;;;7.90;99.90;;;;;;4997727;28;20087;-73
2021/11/21 08:23:23;;;;;;;21.42;3.05;;;7.80;99.90;;;;;;5016252;28;20065;-74
2021/11/21 08:25:49;;;;;;;14.68;2.40;;;8.20;99.90;;;;;;5016219;28;20042;-73
2021/11/21 08:28:15;;;;;;;15.48;2.55;;;7.90;99.90;;;;;;5032405;28;20557;-74
2021/11/21 08:30:41;;;;;;;20.27;2.95;;;7.90;99.90;;;;;;4980200;28;20099;-76
2021/11/21 08:33:09;;;;;;;20.88;2.78;;;7.90;99.90;;;;;;4983791;28;20505;-77
2021/11/21 08:35:35;;;;;;;17.27;2.55;;;7.90;99.90;;;;;;5033336;28;20049;-76
2021/11/21 08:38:01;;;;;;;21.02;2.92;;;7.90;99.90;;;;;;5033769;28;20048;-82
2021/11/21 08:40:29;;;;;;;17.67;2.63;;;7.90;99.90;;;;;;4999050;28;20044;-77
2021/11/21 08:42:56;;;;;;;15.32;2.22;;;7.90;99.90;;;;;;5032260;28;20079;-80
2021/11/21 08:45:22;;;;;;;21.65;3.20;;;7.90;99.90;;;;;;5016201;28;20068;-83
2021/11/21 08:47:48;;;;;;;18.67;3.45;;;7.90;99.90;;;;;;5014454;28;20033;-80
2021/11/21 08:50:14;;;;;;;23.48;2.65;;;7.90;99.90;;;;;;5015617;28;20084;-78
2021/11/21 08:52:40;;;;;;;19.92;2.70;;;7.90;99.90;;;;;;4999504;28;20040;-78
2021/11/21 08:55:07;;;;;;;18.25;2.67;;;7.90;99.90;;;;;;4997809;28;20417;-82
2021/11/21 08:57:34;;;;;;;20.48;3.20;;;7.90;99.90;;;;;;5032017;28;20405;-80
2021/11/21 09:00:05;;;;;;;18.48;3.10;;;8.00;99.90;;;;;;4999351;28;20120;-77
2021/11/21 09:02:31;;;;;;;14.23;2.33;;;8.40;99.90;;;;;;5032867;28;20064;-77
2021/11/21 09:05:03;;;;;;;28.98;3.10;;;8.00;99.90;;;;;;5032649;28;20486;-77
2021/11/21 09:07:29;;;;;;;26.42;3.10;;;8.00;99.90;;;;;;5021915;28;20116;-78
2021/11/21 09:09:55;;;;;;;15.95;2.80;;;8.10;99.90;;;;;;5014212;28;20125;-77
2021/11/21 09:12:20;;;;;;;10.55;2.22;;;8.10;99.90;;;;;;4996306;28;20052;-78
2021/11/21 09:14:46;;;;;;;22.98;2.95;;;8.40;99.90;;;;;;5029836;28;20060;-78
2021/11/21 09:17:12;;;;;;;21.23;3.40;;;8.10;99.90;;;;;;4999431;28;20308;-78
2021/11/21 09:19:38;;;;;;;14.43;2.40;;;8.10;99.90;;;;;;5015256;28;20087;-78
2021/11/21 09:22:03;;;;;;;16.00;2.42;;;8.20;99.90;;;;;;5031163;28;20037;-78
2021/11/21 09:24:29;;;;;;;15.80;2.47;;;8.20;99.90;;;;;;5031988;28;20062;-78
2021/11/21 09:26:55;;;;;;;17.88;2.95;;;8.80;99.90;;;;;;4999326;28;20053;-78
2021/11/21 09:29:21;;;;;;;17.55;2.97;;;8.30;99.90;;;;;;5032597;28;20048;-79
2021/11/21 09:31:46;;;;;;;12.27;1.95;;;8.30;99.90;;;;;;5015260;28;20069;-79
2021/11/21 09:34:14;;;;;;;21.05;2.88;;;8.40;99.90;;;;;;5032019;28;20555;-79
2021/11/21 09:36:40;;;;;;;15.57;2.50;;;9.00;99.90;;;;;;5014319;28;20041;-79
2021/11/21 09:39:06;;;;;;;14.27;2.42;;;8.40;99.90;;;;;;5032070;28;20553;-79
2021/11/21 09:41:32;;;;;;;21.42;2.90;;;8.40;99.90;;;;;;4998855;28;20045;-79
2021/11/21 09:44:00;;;;;;;24.60;2.38;;;8.50;99.90;;;;;;4998665;28;20049;-79
2021/11/21 09:46:26;;;;;;;15.23;2.75;;;8.50;99.90;;;;;;5032452;28;20044;-79
2021/11/21 09:48:53;;;;;;;12.07;1.73;;;8.50;99.90;;;;;;5031984;28;20063;-79
2021/11/21 09:51:21;;;;;;;13.63;2.00;;;8.50;99.90;;;;;;4996551;28;20048;-79
2021/11/21 09:53:48;;;;;;;13.82;2.30;;;9.30;99.90;;;;;;4997989;28;20042;-79
2021/11/21 09:56:16;;;;;;;10.93;1.60;;;8.50;99.90;;;;;;5031347;28;20041;-79
2021/11/21 09:58:41;;;;;;;9.93;2.05;;;8.60;99.90;;;;;;5031247;28;20087;-79
2021/11/21 10:01:35;;;;;;;14.18;2.58;;;8.70;99.90;;;;;;5030566;28;20493;-79
2021/11/21 10:04:02;;;;;;;16.27;2.25;;;8.70;99.90;;;;;;5031111;28;20041;-79
2021/11/21 10:06:45;;;;;;;9.05;2.45;;;8.80;99.90;;;;;;4980643;28;20037;-80
2021/11/21 10:09:13;;;;;;;17.55;2.08;;;8.90;99.90;;;;;;4997351;28;20041;-79
2021/11/21 10:12:02;;;;;;;17.92;2.35;;;8.90;99.90;;;;;;5030111;28;20033;-78
2021/11/21 10:14:30;;;;;;;10.73;1.77;;;8.90;99.90;;;;;;5028510;28;20033;-78
2021/11/21 10:16:56;;;;;;;15.20;2.53;;;9.00;99.90;;;;;;5014139;28;20045;-78
2021/11/21 10:19:22;;;;;;;18.13;2.95;;;9.00;99.90;;;;;;5014783;28;20049;-78
2021/11/21 10:21:54;;;;;;;9.77;2.30;;;9.10;99.90;;;;;;5014593;28;20432;-78
2021/11/21 10:24:28;;;;;;;14.73;2.38;;;9.10;99.90;;;;;;5012356;28;20064;-77
2021/11/21 10:27:01;;;;;;;15.48;2.53;;;9.10;99.90;;;;;;5012046;28;20382;-82
2021/11/21 10:29:33;;;;;;;15.55;2.90;;;9.70;99.90;;;;;;4998696;28;20048;-80
2021/11/21 10:32:02;;;;;;;10.15;2.47;;;9.10;99.90;;;;;;5014978;28;20033;-83
2021/11/21 10:34:28;;;;;;;18.05;2.30;;;9.30;99.90;;;;;;4983470;28;20478;-83
2021/11/21 10:37:06;;;;;;;13.60;2.30;;;9.40;99.90;;;;;;5014907;28;20205;-85
2021/11/21 10:39:32;;;;;;;10.15;1.65;;;10.20;99.90;;;;;;5014248;28;20080;-81
2021/11/21 10:42:01;;;;;;;8.68;2.33;;;9.60;99.90;;;;;;4995154;28;20068;-74
2021/11/21 10:44:27;;;;;;;9.30;1.58;;;9.60;99.90;;;;;;5013154;28;20048;-77
2021/11/21 10:46:59;;;;;;;9.13;1.48;;;9.60;99.90;;;;;;5031559;28;20397;-81
2021/11/21 10:49:30;;;;;;;8.23;1.55;;;9.60;99.90;;;;;;5032016;28;20047;-81
2021/11/21 10:52:20;;;;;;;7.55;1.50;;;9.70;99.90;;;;;;5027848;28;20050;-80
2021/11/21 10:54:57;;;;;;;10.20;2.00;;;9.70;99.90;;;;;;5007962;28;20390;-82
2021/11/21 10:57:27;;;;;;;7.75;1.42;;;9.70;99.90;;;;;;5014244;28;20084;-82
2021/11/21 11:00:12;;;;;;;11.65;1.48;;;9.60;99.90;;;;;;5012075;28;20096;-88
2021/11/21 11:02:43;;;;;;;8.20;1.65;;;9.60;99.90;;;;;;5011821;28;20042;-87
2021/11/21 11:05:13;;;;;;;8.32;1.75;;;9.70;99.90;;;;;;4993772;28;20040;-87
2021/11/21 11:08:23;;;;;;;7.97;2.15;;;9.70;99.90;;;;;;5035334;28;20040;-85
2021/11/21 11:10:49;;;;;;;11.43;1.80;;;9.70;99.90;;;;;;4968238;28;20042;-86
2021/11/21 11:13:15;;;;;;;11.95;1.83;;;9.60;99.90;;;;;;4997554;28;20034;-82
2021/11/21 11:15:43;;;;;;;9.93;1.70;;;9.70;99.90;;;;;;5031128;28;20343;-82
2021/11/21 11:18:12;;;;;;;9.27;1.70;;;9.70;99.90;;;;;;5029511;28;20493;-82
2021/11/21 11:20:49;;;;;;;9.43;1.50;;;9.70;99.90;;;;;;5013489;28;20394;-82
2021/11/21 11:23:17;;;;;;;13.18;2.55;;;9.70;99.90;;;;;;5029699;28;20140;-83
2021/11/21 11:25:44;;;;;;;8.35;2.67;;;9.70;99.90;;;;;;4996961;28;20464;-82
2021/11/21 11:28:26;;;;;;;10.98;1.65;;;9.80;99.90;;;;;;4996541;28;20497;-79
2021/11/21 11:30:54;;;;;;;12.95;2.50;;;9.80;99.90;;;;;;5028169;28;20488;-78
2021/11/21 11:33:22;;;;;;;10.93;1.55;;;9.80;99.90;;;;;;5026404;28;20096;-80
2021/11/21 11:35:54;;;;;;;9.70;1.48;;;9.90;99.90;;;;;;5031718;28;20048;-80
2021/11/21 11:38:31;;;;;;;12.95;1.75;;;10.00;99.90;;;;;;5032217;28;20431;-80
2021/11/21 11:41:01;;;;;;;12.15;1.52;;;10.20;99.90;;;;;;4997719;28;20124;-80
2021/11/21 11:43:30;;;;;;;9.68;1.45;;;10.20;99.90;;;;;;5030742;28;20056;-80
2021/11/21 11:46:08;;;;;;;8.77;1.63;;;10.30;99.90;;;;;;5010768;28;20045;-76
2021/11/21 11:48:37;;;;;;;10.25;1.90;;;10.10;99.90;;;;;;4997924;28;20080;-80
2021/11/21 11:51:09;;;;;;;10.70;1.40;;;10.10;99.90;;;;;;5021794;28;20037;-80
2021/11/21 11:53:43;;;;;;;9.85;1.40;;;10.10;99.90;;;;;;5014102;28;20087;-80
2021/11/21 11:56:15;;;;;;;9.20;1.35;;;10.00;99.90;;;;;;5035260;28;20052;-76
2021/11/21 11:58:48;;;;;;;10.98;1.65;;;10.00;99.90;;;;;;5017062;28;20042;-76
2021/11/21 12:01:38;;;;;;;11.82;1.80;;;10.00;99.90;;;;;;5032737;28;20039;-76
2021/11/21 12:04:29;;;;;;;9.93;1.67;;;9.90;99.90;;;;;;5017399;28;20351;-76
2021/11/21 12:06:59;;;;;;;9.57;1.70;;;9.80;99.90;;;;;;5034886;28;20460;-76
2021/11/21 12:09:28;;;;;;;6.80;1.75;;;9.90;99.90;;;;;;5033859;28;20124;-76
2021/11/21 12:12:09;;;;;;;10.82;1.75;;;9.90;99.90;;;;;;5017098;28;20045;-76
2021/11/21 12:14:35;;;;;;;5.57;1.10;;;10.00;99.90;;;;;;5017387;28;20140;-76
2021/11/21 12:17:02;;;;;;;6.68;1.10;;;10.00;99.90;;;;;;5016887;28;20124;-76
2021/11/21 12:19:52;;;;;;;10.63;1.55;;;10.00;99.90;;;;;;5015928;28;20059;-76
2021/11/21 12:22:32;;;;;;;12.30;2.03;;;9.90;99.90;;;;;;5017072;28;20056;-76
2021/11/21 12:25:05;;;;;;;11.20;1.60;;;9.90;99.90;;;;;;5013591;28;20061;-76
2021/11/21 12:27:41;;;;;;;14.40;1.77;;;9.90;99.90;;;;;;5013754;28;20525;-76
2021/11/21 12:30:12;;;;;;;11.02;1.63;;;9.90;99.90;;;;;;5000679;28;20042;-76
2021/11/21 12:32:46;;;;;;;8.68;1.55;;;9.90;99.90;;;;;;4984768;28;20363;-76
2021/11/21 12:35:24;;;;;;;10.52;1.55;;;9.90;99.90;;;;;;5031927;28;20037;-76
2021/11/21 12:37:56;;;;;;;12.18;1.95;;;10.00;99.90;;;;;;5016648;28;20094;-76
2021/11/21 12:40:34;;;;;;;11.88;2.40;;;9.80;99.90;;;;;;5034633;28;20037;-76
2021/11/21 12:43:09;;;;;;;8.07;1.65;;;9.80;99.90;;;;;;5016707;28;20116;-76
2021/11/21 12:45:46;;;;;;;16.40;1.98;;;9.80;99.90;;;;;;5033337;28;20045;-76
2021/11/21 12:48:14;;;;;;;11.65;2.63;;;10.10;99.90;;;;;;5033345;28;20048;-76
2021/11/21 12:50:42;;;;;;;24.05;3.05;;;9.90;99.90;;;;;;5033282;28;20375;-76
2021/11/21 12:53:11;;;;;;;12.07;2.58;;;9.70;99.90;;;;;;5033032;28;20079;-76
2021/11/21 12:55:40;;;;;;;14.00;2.45;;;9.70;99.90;;;;;;5000186;28;20124;-76